Flight Track Log - Related Links

Times and Time Zones

All times are in EDT time to prevent confusion due to time zone crossing. See the AAY876 flight status page for this flight to view local times or setup timezone preferences in your user account.

Time Position Orientation Groundspeed Altitude Reporting Facility
EDT Latitude Longitude Course Direction KTS MPH feet Rate Location/Type
Thu 03:14:18 PM 27.9167 -82.6833 12° North 146 168 800  Level Tampa TRACON
Thu 03:15:18 PM 27.9833 -82.6667 12° North 233 268 2,000 1,670 Climbing Tampa TRACON
Thu 03:16:13 PM 28.0500 -82.6667 360° North 284 327 4,000 2,400 Climbing Tampa TRACON
Thu 03:17:13 PM 28.1167 -82.6833 348° North 274 315 6,600 2,308 Climbing Tampa TRACON
Thu 03:19:02 PM 28.2625 -82.7111 350° North 309 356 10,500 2,059 Climbing Jacksonville Center
Thu 03:20:02 PM 28.3628 -82.7369 347° North 322 371 12,400 2,200 Climbing Jacksonville Center
Thu 03:21:02 PM 28.4650 -82.7628 347° North 356 410 14,900 2,300 Climbing Jacksonville Center
Thu 03:22:02 PM 28.5736 -82.7886 348° North 378 435 17,000 1,650 Climbing Jacksonville Center
Thu 03:23:02 PM 28.6633 -82.8122 347° North 394 453 18,200 1,650 Climbing Jacksonville Center
Thu 03:24:02 PM 28.8011 -82.8453 348° North 407 468 20,300 1,800 Climbing Jacksonville Center
Thu 03:25:02 PM 28.9181 -82.8736 348° North 420 483 21,800 1,350 Climbing Jacksonville Center
Thu 03:26:02 PM 29.0431 -82.9069 347° North 435 501 23,000 1,100 Climbing Jacksonville Center
Thu 03:27:02 PM 29.1664 -82.9378 348° North 446 513 24,000 500 Climbing Jacksonville Center
Thu 03:28:02 PM 29.2872 -82.9689 347° North 452 520 24,000 650 Level Jacksonville Center
Thu 03:29:02 PM 29.4106 -82.9997 348° North 452 520 25,300 1,500 Climbing Jacksonville Center
Thu 03:30:02 PM 29.5358 -83.0333 347° North 454 522 27,000 1,950 Climbing Jacksonville Center
Thu 03:31:02 PM 29.6506 -83.0719 344° North 443 510 29,200 1,500 Climbing Jacksonville Center
Thu 03:32:02 PM 29.7528 -83.1197 338° Northwest 417 480 30,000 400 Climbing Jacksonville Center
Thu 03:33:02 PM 29.8550 -83.1681 338° Northwest 396 456 30,000  Level Jacksonville Center
Thu 03:34:02 PM 29.9572 -83.2161 338° Northwest 396 456 30,000  Level Jacksonville Center
Thu 03:35:02 PM 30.0633 -83.2647 338° Northwest 396 456 30,000  Level Jacksonville Center
Thu 03:36:02 PM 30.1678 -83.3131 338° Northwest 396 456 30,000  Level Jacksonville Center
Thu 03:37:02 PM 30.2511 -83.3519 338° Northwest 396 456 30,000  Level Jacksonville Center
Thu 03:38:02 PM 30.3742 -83.4103 338° Northwest 396 456 30,000  Level Jacksonville Center
Thu 03:39:02 PM 30.4678 -83.4517 339° North 396 456 30,000  Level Jacksonville Center
Thu 03:40:02 PM 30.5719 -83.5006 338° Northwest 396 456 30,000  Level Jacksonville Center
Thu 03:41:02 PM 30.6761 -83.5519 337° Northwest 396 456 30,000  Level Jacksonville Center
Thu 03:42:02 PM 30.7906 -83.6061 338° Northwest 396 456 30,000  Level Jacksonville Center
Thu 03:43:02 PM 30.8947 -83.6553 338° Northwest 396 456 30,000  Level Jacksonville Center
Thu 03:44:02 PM 30.9989 -83.7069 337° Northwest 396 456 30,000  Level Jacksonville Center
Thu 03:45:02 PM 31.1008 -83.7564 337° Northwest 396 456 30,000  Level Jacksonville Center
Thu 03:46:02 PM 31.2050 -83.8058 338° Northwest 396 456 30,000  Level Jacksonville Center
Thu 03:47:02 PM 31.3111 -83.8556 338° Northwest 396 456 30,000  Level Jacksonville Center
Thu 03:49:10 PM 31.5211 -83.9561 338° Northwest 406 467 30,000  Level Atlanta Center
Thu 03:50:10 PM 31.6464 -83.9875 348° North 413 475 30,000  Level Atlanta Center
Thu 03:51:10 PM 31.7653 -84.0119 350° North 418 481 30,000  Level Atlanta Center
Thu 03:52:10 PM 31.8803 -84.0364 350° North 418 481 30,000  Level Atlanta Center
Thu 03:53:10 PM 31.9908 -84.0608 349° North 418 481 30,000  Level Atlanta Center
Thu 03:54:10 PM 32.1036 -84.0856 349° North 413 475 30,000  Level Atlanta Center
Thu 03:55:10 PM 32.2183 -84.1100 350° North 413 475 30,000  Level Atlanta Center
Thu 03:56:10 PM 32.3311 -84.1372 348° North 413 475 30,000  Level Atlanta Center
Thu 03:57:10 PM 32.4417 -84.1619 349° North 413 475 30,000  Level Atlanta Center
Thu 03:58:10 PM 32.5564 -84.1867 350° North 413 475 30,000  Level Atlanta Center
Thu 03:59:10 PM 32.6692 -84.2164 347° North 413 475 30,000  Level Atlanta Center
Thu 04:00:10 PM 32.7839 -84.2414 350° North 413 475 30,000  Level Atlanta Center
Thu 04:01:10 PM 32.8964 -84.2714 347° North 413 475 30,000  Level Atlanta Center
Thu 04:02:10 PM 33.0092 -84.2964 349° North 413 475 30,000  Level Atlanta Center
Thu 04:03:10 PM 33.1219 -84.3217 349° North 413 475 30,000  Level Atlanta Center
Thu 04:04:10 PM 33.2242 -84.3442 350° North 413 475 30,000  Level Atlanta Center
Thu 04:05:10 PM 33.3367 -84.3694 349° North 413 475 30,000  Level Atlanta Center
Thu 04:06:10 PM 33.4472 -84.3947 349° North 413 475 30,000  Level Atlanta Center
Thu 04:07:10 PM 33.5642 -84.4228 349° North 413 475 30,000  Level Atlanta Center
Thu 04:08:10 PM 33.6808 -84.4481 350° North 405 466 30,000  Level Atlanta Center
Thu 04:09:10 PM 33.7936 -84.4761 348° North 405 466 30,000  Level Atlanta Center
Thu 04:10:10 PM 33.9061 -84.5044 348° North 405 466 30,000  Level Atlanta Center
Thu 04:11:10 PM 34.0208 -84.5325 349° North 410 472 30,000 50 Level Atlanta Center
Thu 04:12:10 PM 34.1356 -84.5583 349° North 410 472 30,100 400 Climbing Atlanta Center
Thu 04:13:10 PM 34.2356 -84.5814 349° North 416 479 30,800 850 Climbing Atlanta Center
Thu 04:14:10 PM 34.3503 -84.6100 348° North 417 480 31,800 900 Climbing Atlanta Center
Thu 04:15:10 PM 34.4628 -84.6383 348° North 411 473 32,600 1,100 Climbing Atlanta Center
Thu 04:16:10 PM 34.5733 -84.6619 350° North 406 467 34,000 700 Climbing Atlanta Center
Thu 04:17:10 PM 34.6919 -84.6956 347° North 401 461 34,000  Level Atlanta Center
Thu 04:18:10 PM 34.8003 -84.7217 349° North 395 455 34,000  Level Atlanta Center
Thu 04:19:10 PM 34.9108 -84.7506 348° North 395 455 34,000  Level Atlanta Center
Thu 04:20:10 PM 35.0233 -84.7769 349° North 395 455 34,000  Level Atlanta Center
Thu 04:21:10 PM 35.1339 -84.8083 347° North 395 455 34,000  Level Atlanta Center
Thu 04:22:10 PM 35.2483 -84.8347 349° North 406 467 34,000  Level Atlanta Center
Thu 04:23:10 PM 35.3608 -84.8639 348° North 411 473 34,000  Level Atlanta Center
Thu 04:24:10 PM 35.4608 -84.8878 349° North 411 473 34,000  Level Atlanta Center
Thu 04:25:10 PM 35.5733 -84.9169 348° North 411 473 34,000  Level Atlanta Center
Thu 04:26:10 PM 35.6878 -84.9464 348° North 411 473 34,000  Level Atlanta Center
Thu 04:27:10 PM 35.8044 -84.9733 349° North 411 473 34,000  Level Atlanta Center
Thu 04:28:31 PM 35.9631 -85.0150 348° North 420 483 34,000  Level Indianapolis Center
Thu 04:29:33 PM 36.0800 -85.0439 349° North 420 483 34,000  Level Indianapolis Center
Thu 04:30:35 PM 36.1950 -85.0753 348° North 420 483 34,000  Level Indianapolis Center
Thu 04:31:37 PM 36.3100 -85.1044 348° North 420 483 34,000  Level Indianapolis Center
Thu 04:32:39 PM 36.4231 -85.1336 348° North 419 482 34,000  Level Indianapolis Center
Thu 04:33:42 PM 36.5583 -85.1694 348° North 417 480 34,000 48 Level Indianapolis Center
Thu 04:34:44 PM 36.6708 -85.1992 348° North 414 476 34,100  Climbing Indianapolis Center
Thu 04:35:46 PM 36.7833 -85.2278 348° North 414 476 34,000 -48 Descending Indianapolis Center
Thu 04:36:48 PM 36.8928 -85.2564 348° North 405 466 34,000  Level Indianapolis Center
Thu 04:37:50 PM 37.0019 -85.2847 348° North 404 465 34,000  Level Indianapolis Center
Thu 04:38:52 PM 37.1294 -85.3175 348° North 404 465 34,000  Level Indianapolis Center
Thu 04:39:54 PM 37.2378 -85.3469 348° North 401 461 34,000  Level Indianapolis Center
Thu 04:40:56 PM 37.3467 -85.3742 349° North 401 461 34,000  Level Indianapolis Center
Thu 04:41:58 PM 37.4553 -85.4028 348° North 399 459 34,000  Level Indianapolis Center
Thu 04:43:01 PM 37.5625 -85.4328 347° North 399 459 34,000  Level Indianapolis Center
Thu 04:44:03 PM 37.6736 -85.4611 349° North 399 459 34,000  Level Indianapolis Center
Thu 04:45:05 PM 37.7992 -85.4964 347° North 399 459 34,000  Level Indianapolis Center
Thu 04:46:07 PM 37.9083 -85.5244 349° North 399 459 34,000  Level Indianapolis Center
Thu 04:47:09 PM 38.0156 -85.5558 347° North 398 458 34,000  Level Indianapolis Center
Thu 04:48:11 PM 38.1253 -85.5911 346° North 402 463 34,000  Level Indianapolis Center
Thu 04:49:13 PM 38.2228 -85.6481 335° Northwest 393 452 34,000  Level Indianapolis Center
Thu 04:50:15 PM 38.3206 -85.7061 335° Northwest 390 449 34,000  Level Indianapolis Center
Thu 04:51:17 PM 38.4389 -85.7756 335° Northwest 390 449 34,000  Level Indianapolis Center
Thu 04:52:20 PM 38.5350 -85.8331 335° Northwest 387 445 34,000  Level Indianapolis Center
Thu 04:53:22 PM 38.6339 -85.8897 336° Northwest 387 445 34,000  Level Indianapolis Center
Thu 04:54:24 PM 38.7314 -85.9483 335° Northwest 387 445 34,000  Level Indianapolis Center
Thu 04:55:26 PM 38.8275 -86.0058 335° Northwest 386 444 34,000  Level Indianapolis Center
Thu 04:56:28 PM 38.9275 -86.0658 335° Northwest 379 436 34,000  Level Indianapolis Center
Thu 04:57:30 PM 39.0231 -86.1231 335° Northwest 378 435 34,000  Level Indianapolis Center
Thu 04:58:32 PM 39.1136 -86.1897 330° Northwest 378 435 34,000  Level Indianapolis Center
Thu 04:59:34 PM 39.2183 -86.2783 327° Northwest 376 433 34,000  Level Indianapolis Center
Thu 05:00:36 PM 39.3072 -86.3525 327° Northwest 377 434 34,000  Level Indianapolis Center
Thu 05:02:41 PM 39.4833 -86.5011 327° Northwest 377 434 34,000  Level Indianapolis Center
Thu 05:03:43 PM 39.5703 -86.5750 327° Northwest 375 432 34,000  Level Indianapolis Center
Thu 05:04:45 PM 39.6583 -86.6481 327° Northwest 374 430 34,000  Level Indianapolis Center
Thu 05:05:47 PM 39.7472 -86.7244 327° Northwest 374 430 34,000  Level Indianapolis Center
Thu 05:06:49 PM 39.8356 -86.8006 327° Northwest 375 432 34,000  Level Indianapolis Center
Thu 05:07:51 PM 39.9403 -86.8903 327° Northwest 375 432 34,000  Level Indianapolis Center
Thu 05:08:53 PM 40.0261 -86.9647 326° Northwest 374 430 34,000  Level Indianapolis Center
Thu 05:09:55 PM 40.1100 -87.0428 325° Northwest 373 429 34,000  Level Indianapolis Center
Thu 05:11:06 PM 40.1942 -87.1597 313° West 368 423 34,000  Level Chicago Center
Thu 05:12:08 PM 40.2650 -87.2550 314° West 367 422 34,000  Level Chicago Center
Thu 05:13:10 PM 40.3347 -87.3517 313° West 366 421 34,000  Level Chicago Center
Thu 05:14:13 PM 40.4106 -87.4567 314° West 367 422 34,000  Level Chicago Center
Thu 05:15:15 PM 40.4803 -87.5528 314° West 367 422 34,000  Level Chicago Center
Thu 05:16:17 PM 40.5639 -87.6700 313° West 367 422 34,000  Level Chicago Center
Thu 05:17:19 PM 40.6342 -87.7658 314° West 367 422 34,000  Level Chicago Center
Thu 05:18:21 PM 40.7019 -87.8625 313° West 364 419 34,000 -532 Level Chicago Center
Thu 05:19:23 PM 40.7711 -87.9589 313° West 364 419 32,900 -1,306 Descending Chicago Center
Thu 05:20:25 PM 40.8414 -88.0553 314° West 364 419 31,300 -1,248 Descending Chicago Center
Thu 05:21:28 PM 40.9086 -88.1508 313° West 358 412 30,300 -1,104 Descending Chicago Center
Thu 05:22:30 PM 40.9897 -88.2636 314° West 354 407 29,000 -1,161 Descending Chicago Center
Thu 05:23:32 PM 41.0578 -88.3606 313° West 355 409 27,900 -1,161 Descending Chicago Center
Thu 05:24:34 PM 41.1256 -88.4592 312° West 358 412 26,600 -1,161 Descending Chicago Center
Thu 05:25:36 PM 41.1956 -88.5583 313° West 362 417 25,500 -1,161 Descending Chicago Center
Thu 05:26:38 PM 41.2675 -88.6622 313° West 376 433 24,200 -1,790 Descending Chicago Center
Thu 05:27:40 PM 41.3358 -88.7611 313° West 368 423 21,800 -2,736 Descending Chicago Center
Thu 05:28:43 PM 41.4164 -88.8775 313° West 357 411 18,500 -2,688 Descending Chicago Center
Thu 05:29:45 PM 41.4803 -88.9706 313° West 346 398 16,200 -2,129 Descending Chicago Center
Thu 05:30:47 PM 41.5425 -89.0592 313° West 332 382 14,100 -1,161 Descending Chicago Center
Thu 05:31:49 PM 41.5964 -89.1392 312° West 295 339 13,800 -532 Descending Chicago Center
Thu 05:32:51 PM 41.6514 -89.2189 313° West 291 335 13,000 -532 Descending Chicago Center
Thu 05:33:53 PM 41.7106 -89.2906 318° Northwest 294 338 12,700 -871 Descending Chicago Center
Thu 05:34:55 PM 41.8044 -89.2597 14° North 294 338 11,200 -1,500 Descending Chicago Center
Thu 05:35:57 PM 41.8806 -89.2292 17° North 288 331 9,600 -1,536 Descending Chicago Center
Thu 05:37:00 PM 41.9533 -89.1967 18° North 280 322 8,000 -1,584 Descending Chicago Center
Thu 05:38:02 PM 42.0022 -89.1150 51° Northeast 288 331 6,300 -1,548 Descending Chicago Center
Thu 05:39:04 PM 42.0531 -89.0408 47° Northeast 271 312 4,800 -1,452 Descending Chicago Center
Thu 05:40:06 PM 42.1200 -88.9972 26° Northeast 249 287 3,300 -1,161 Descending Chicago Center
Thu 05:41:08 PM 42.1781 -88.9883 North 224 258 2,400 -871 Descending Chicago Center

Login

Don't have an account? Register now (free) for customized features, flight alerts, and more!